Terminal Aerodrome Forecast
Issued by NWS Mt. Holly, NJ

Home | Current Version | Previous Version | Text Only | Print | Product List | Glossary On
Versions: 1 2 3 4 5 6 7 8 9 10 11 12 13 14 15 16 17
000
FTUS41 KPHI 210800 AAA
TAFRDG
TAF AMD
KRDG 210819Z 2108/2206 VRB02KT 6SM BR SCT004
      TEMPO 2108/2112 3SM BR BKN004
     FM211200 VRB03KT 6SM BR SCT020
      TEMPO 2112/2115 2SM BR BKN020
     FM211500 18005KT P6SM SCT025 BKN100
     FM211800 23006KT P6SM FEW250
     FM220200 27005KT P6SM SCT050=

USA.gov is the U.S. government's official web portal to all federal, state and local government web resources and services.